createdAt,value
2019-01-04T00:00:45.994Z,1.80
2019-01-04T00:02:50.071Z,1.80
2019-01-04T00:04:53.831Z,1.70
2019-01-04T00:06:57.570Z,1.70
2019-01-04T00:09:01.314Z,1.70
2019-01-04T00:11:05.136Z,1.80
2019-01-04T00:13:08.874Z,1.80
2019-01-04T00:15:13.039Z,1.70
2019-01-04T00:17:17.344Z,1.70
2019-01-04T00:19:21.194Z,1.70
2019-01-04T00:21:25.258Z,1.70
2019-01-04T00:23:29.078Z,1.70
2019-01-04T00:25:33.058Z,1.80
2019-01-04T00:27:36.886Z,1.80
2019-01-04T00:29:40.674Z,1.80
2019-01-04T00:31:44.516Z,1.80
2019-01-04T00:33:48.439Z,1.80
2019-01-04T00:35:52.335Z,1.80
2019-01-04T00:37:56.254Z,1.80
2019-01-04T00:40:00.087Z,1.70
2019-01-04T00:42:04.205Z,1.70
2019-01-04T00:44:08.029Z,1.70
2019-01-04T00:46:12.214Z,1.60
2019-01-04T00:48:16.211Z,1.60
2019-01-04T00:50:20.124Z,1.60
2019-01-04T00:52:24.283Z,1.60
2019-01-04T00:54:28.174Z,1.50
2019-01-04T00:57:09.559Z,1.50
2019-01-04T01:00:15.657Z,1.50
2019-01-04T01:02:50.158Z,1.50
2019-01-04T01:05:43.555Z,1.40
2019-01-04T01:08:11.210Z,1.40
2019-01-04T01:10:42.459Z,1.30
2019-01-04T01:13:24.076Z,1.30
2019-01-04T01:16:10.311Z,1.30
2019-01-04T01:18:39.277Z,1.30
2019-01-04T01:21:27.533Z,1.30
2019-01-04T01:24:03.584Z,1.30
2019-01-04T01:27:02.675Z,1.20
2019-01-04T01:29:43.826Z,1.20
2019-01-04T01:31:58.407Z,1.30
2019-01-04T01:34:54.427Z,1.30
2019-01-04T01:37:34.855Z,1.40
2019-01-04T01:40:25.711Z,1.50
2019-01-04T01:42:57.196Z,1.60
2019-01-04T01:45:26.995Z,1.70
2019-01-04T01:47:45.075Z,1.80
2019-01-04T01:50:25.942Z,1.90
2019-01-04T01:52:42.567Z,2.00
2019-01-04T01:54:46.568Z,2.00
2019-01-04T01:56:51.692Z,2.00
2019-01-04T01:58:55.763Z,2.00
2019-01-04T02:00:59.515Z,2.00
2019-01-04T02:03:03.366Z,2.00
2019-01-04T02:05:07.196Z,1.90
2019-01-04T02:07:11.011Z,1.90
2019-01-04T02:09:14.785Z,1.80
2019-01-04T02:11:18.602Z,1.80
2019-01-04T02:13:22.357Z,1.70
2019-01-04T02:15:26.470Z,1.70
2019-01-04T02:17:30.262Z,1.60
2019-01-04T02:19:34.253Z,1.60
2019-01-04T02:21:38.053Z,1.60
2019-01-04T02:23:42.047Z,1.60
2019-01-04T02:25:45.806Z,1.50
2019-01-04T02:27:49.802Z,1.50
2019-01-04T02:29:53.559Z,1.50
2019-01-04T02:31:57.915Z,1.40
2019-01-04T02:34:01.939Z,1.40
2019-01-04T02:36:05.690Z,1.40
2019-01-04T02:38:09.430Z,1.30
2019-01-04T02:40:13.203Z,1.30
2019-01-04T02:42:16.968Z,1.30
2019-01-04T02:44:20.714Z,1.20
2019-01-04T02:46:24.463Z,1.20
2019-01-04T02:48:28.488Z,1.20
2019-01-04T02:50:32.274Z,1.20
2019-01-04T02:52:36.316Z,1.20
2019-01-04T02:54:40.079Z,1.20
2019-01-04T02:56:43.933Z,1.20
2019-01-04T02:58:47.692Z,1.20
2019-01-04T03:00:51.635Z,1.20
2019-01-04T03:02:55.382Z,1.20
2019-01-04T03:04:59.206Z,1.20
2019-01-04T03:07:03.048Z,1.20
2019-01-04T03:09:07.319Z,1.20
2019-01-04T03:11:11.167Z,1.30
2019-01-04T03:13:14.906Z,1.30
2019-01-04T03:15:18.887Z,1.40
2019-01-04T03:17:22.887Z,1.50
2019-01-04T03:19:26.987Z,1.60
2019-01-04T03:21:30.811Z,1.70
2019-01-04T03:23:34.572Z,1.70
2019-01-04T03:25:38.579Z,1.80
2019-01-04T03:27:42.335Z,1.90
2019-01-04T03:29:46.349Z,1.90
2019-01-04T03:31:50.592Z,1.90
2019-01-04T03:33:54.697Z,2.00
2019-01-04T03:35:58.518Z,2.00
2019-01-04T03:38:02.535Z,2.00
2019-01-04T03:40:06.810Z,2.00
2019-01-04T03:42:10.734Z,2.10
2019-01-04T03:44:15.007Z,2.10
2019-01-04T03:46:18.771Z,2.10
2019-01-04T03:48:22.530Z,2.10
2019-01-04T03:50:26.457Z,2.10
2019-01-04T03:52:30.249Z,2.10
2019-01-04T03:54:34.027Z,2.20
2019-01-04T03:56:37.792Z,2.20
2019-01-04T04:00:45.632Z,2.30
2019-01-04T04:02:49.402Z,2.20
2019-01-04T04:04:53.218Z,2.30
2019-01-04T04:06:56.967Z,2.30
2019-01-04T04:09:00.735Z,2.30
2019-01-04T04:11:04.487Z,2.40
2019-01-04T04:13:08.248Z,2.40
2019-01-04T04:15:12.073Z,2.50
2019-01-04T04:17:18.578Z,2.40
2019-01-04T04:19:22.342Z,2.50
2019-01-04T04:21:26.117Z,2.50
2019-01-04T04:23:29.906Z,2.60
2019-01-04T04:25:33.727Z,2.60
2019-01-04T04:27:37.467Z,2.60
2019-01-04T04:29:41.207Z,2.60
2019-01-04T04:31:45.036Z,2.60
2019-01-04T04:33:49.025Z,2.70
2019-01-04T04:35:52.775Z,2.70
2019-01-04T04:37:56.522Z,2.70
2019-01-04T04:40:00.534Z,2.70
2019-01-04T04:42:04.271Z,2.80
2019-01-04T04:44:08.266Z,2.80
2019-01-04T04:46:12.015Z,2.80
2019-01-04T04:48:15.787Z,2.80
2019-01-04T04:50:19.551Z,2.80
2019-01-04T04:52:23.309Z,2.90
2019-01-04T04:54:27.097Z,2.90
2019-01-04T04:56:30.852Z,2.90
2019-01-04T04:58:34.599Z,2.90
2019-01-04T05:00:38.413Z,3.00
2019-01-04T05:02:42.159Z,3.00
2019-01-04T05:04:45.934Z,3.00
2019-01-04T05:06:49.684Z,3.10
2019-01-04T05:08:53.678Z,3.10
2019-01-04T05:10:57.670Z,3.10
2019-01-04T05:13:01.739Z,3.10
2019-01-04T05:15:05.743Z,3.20
2019-01-04T05:17:09.490Z,3.20
2019-01-04T05:19:13.246Z,3.20
2019-01-04T05:21:17.657Z,3.30
2019-01-04T05:23:21.434Z,3.30
2019-01-04T05:25:25.438Z,3.30
2019-01-04T05:27:29.216Z,3.30
2019-01-04T05:29:33.218Z,3.30
2019-01-04T05:31:36.985Z,3.30
2019-01-04T05:33:40.718Z,3.30
2019-01-04T05:35:44.470Z,3.30
2019-01-04T05:37:48.267Z,3.30
2019-01-04T05:39:52.022Z,3.30
2019-01-04T05:41:55.779Z,3.30
2019-01-04T05:43:59.526Z,3.20
2019-01-04T05:46:03.287Z,3.30
2019-01-04T05:48:07.604Z,3.20
2019-01-04T05:50:11.431Z,3.30
2019-01-04T05:52:15.201Z,3.30
2019-01-04T05:54:18.955Z,3.30
2019-01-04T05:56:22.963Z,3.30
2019-01-04T05:58:26.779Z,3.30
2019-01-04T06:00:30.552Z,3.30
2019-01-04T06:02:34.563Z,3.30
2019-01-04T06:04:38.351Z,3.30
2019-01-04T06:06:42.100Z,3.40
2019-01-04T06:08:46.098Z,3.40
2019-01-04T06:10:49.850Z,3.40
2019-01-04T06:12:53.873Z,3.40
2019-01-04T06:14:57.684Z,3.40
2019-01-04T06:17:01.542Z,3.50
2019-01-04T06:19:05.282Z,3.50
2019-01-04T06:21:09.028Z,3.50
2019-01-04T06:23:12.782Z,3.50
2019-01-04T06:25:16.819Z,3.50
2019-01-04T06:27:20.819Z,3.50
2019-01-04T06:29:24.562Z,3.50
2019-01-04T06:31:28.702Z,3.50
2019-01-04T06:33:32.474Z,3.50
2019-01-04T06:35:36.366Z,3.50
2019-01-04T06:37:40.117Z,3.50
2019-01-04T06:39:43.979Z,3.50
2019-01-04T06:41:47.726Z,3.50
2019-01-04T06:43:51.483Z,3.50
2019-01-04T06:45:55.226Z,3.60
2019-01-04T06:47:59.068Z,3.60
2019-01-04T06:50:02.838Z,3.60
2019-01-04T06:52:06.662Z,3.60
2019-01-04T06:54:47.203Z,3.60
2019-01-04T06:56:50.950Z,3.70
2019-01-04T06:58:54.711Z,3.70
2019-01-04T07:00:58.802Z,3.60
2019-01-04T07:03:02.550Z,3.60
2019-01-04T07:05:06.703Z,3.60
2019-01-04T07:07:10.441Z,3.60
2019-01-04T07:09:14.242Z,3.60
2019-01-04T07:11:17.991Z,3.70
2019-01-04T07:13:21.802Z,3.70
2019-01-04T07:15:25.629Z,3.70
2019-01-04T07:17:29.642Z,3.70
2019-01-04T07:19:33.656Z,3.80
2019-01-04T07:21:37.414Z,3.80
2019-01-04T07:23:41.181Z,3.80
2019-01-04T07:25:45.003Z,3.80
2019-01-04T07:27:48.818Z,3.80
2019-01-04T07:29:52.842Z,3.80
2019-01-04T07:31:56.602Z,3.90
2019-01-04T07:34:00.370Z,3.90
2019-01-04T07:36:04.190Z,3.90
2019-01-04T07:38:07.957Z,3.90
2019-01-04T07:40:11.971Z,3.90
2019-01-04T07:42:15.709Z,3.90
2019-01-04T07:44:19.465Z,3.90
2019-01-04T07:46:23.235Z,4.00
2019-01-04T07:48:27.222Z,4.00
2019-01-04T07:50:31.059Z,4.00
2019-01-04T07:52:34.826Z,4.00
2019-01-04T07:54:39.127Z,4.00
2019-01-04T07:56:42.997Z,4.00
2019-01-04T07:58:46.740Z,4.00
2019-01-04T08:00:50.569Z,4.00
2019-01-04T08:02:56.194Z,4.00
2019-01-04T08:05:00.283Z,4.00
2019-01-04T08:07:04.101Z,4.00
2019-01-04T08:09:07.922Z,4.10
2019-01-04T08:11:11.942Z,4.10
2019-01-04T08:13:15.934Z,4.10
2019-01-04T08:15:19.698Z,4.20
2019-01-04T08:17:23.524Z,4.20
2019-01-04T08:19:27.269Z,4.30
2019-01-04T08:21:31.034Z,4.30
2019-01-04T08:23:34.775Z,4.40
2019-01-04T08:25:38.670Z,4.40
2019-01-04T08:27:42.762Z,4.50
2019-01-04T08:29:46.523Z,4.60
2019-01-04T08:31:50.258Z,4.60
2019-01-04T08:33:54.351Z,4.70
2019-01-04T08:35:58.099Z,4.80
2019-01-04T08:38:01.911Z,4.80
2019-01-04T08:40:07.922Z,4.80
2019-01-04T08:42:11.690Z,4.90
2019-01-04T08:44:15.431Z,4.90
2019-01-04T08:46:19.225Z,5.00
2019-01-04T08:48:22.969Z,5.00
2019-01-04T08:50:26.789Z,5.10
2019-01-04T08:52:31.038Z,5.10
2019-01-04T08:54:34.814Z,5.10
2019-01-04T08:56:39.220Z,5.20
2019-01-04T08:58:42.968Z,5.20
2019-01-04T09:00:46.734Z,5.20
2019-01-04T09:02:50.481Z,5.20
2019-01-04T09:04:54.226Z,5.20
2019-01-04T09:06:57.972Z,5.30
2019-01-04T09:09:01.782Z,5.30
2019-01-04T09:11:05.810Z,5.40
2019-01-04T09:13:09.543Z,5.40
2019-01-04T09:15:13.571Z,5.40
2019-01-04T09:17:17.313Z,5.40
2019-01-04T09:19:21.059Z,5.50
2019-01-04T09:21:25.065Z,5.50
2019-01-04T09:23:28.800Z,5.60
2019-01-04T09:25:32.542Z,5.70
2019-01-04T09:27:36.359Z,5.80
2019-01-04T09:29:40.107Z,5.80
2019-01-04T09:31:43.939Z,5.90
2019-01-04T09:33:47.699Z,6.00
2019-01-04T09:35:51.445Z,6.10
2019-01-04T09:37:55.198Z,6.20
2019-01-04T09:39:59.165Z,6.30
2019-01-04T09:42:23.954Z,6.30
2019-01-04T09:44:27.785Z,6.40
2019-01-04T09:46:31.623Z,6.40
2019-01-04T09:48:35.438Z,6.40
2019-01-04T09:50:39.245Z,6.40
2019-01-04T09:52:43.020Z,6.40
2019-01-04T09:54:46.842Z,6.30
2019-01-04T09:56:50.607Z,6.40
2019-01-04T09:58:54.347Z,6.40
2019-01-04T10:00:58.086Z,6.40
2019-01-04T10:03:02.107Z,6.40
2019-01-04T10:05:06.035Z,6.30
2019-01-04T10:07:09.775Z,6.20
2019-01-04T10:09:13.516Z,6.10
2019-01-04T10:11:17.336Z,6.10
2019-01-04T10:13:21.119Z,6.10
2019-01-04T10:15:24.859Z,6.00
2019-01-04T10:17:28.840Z,6.00
2019-01-04T10:19:32.574Z,6.10
2019-01-04T10:21:36.650Z,6.20
2019-01-04T10:23:40.411Z,6.20
2019-01-04T10:25:44.154Z,6.30
2019-01-04T10:27:47.905Z,6.20
2019-01-04T10:29:51.709Z,6.20
2019-01-04T10:31:55.686Z,6.20
2019-01-04T10:33:59.690Z,6.30
2019-01-04T10:36:03.711Z,6.30
2019-01-04T10:38:07.462Z,6.30
2019-01-04T10:40:11.410Z,6.30
2019-01-04T10:42:15.254Z,6.40
2019-01-04T10:44:19.259Z,6.40
2019-01-04T10:48:26.597Z,6.40
2019-01-04T10:50:31.288Z,6.30
2019-01-04T10:52:35.054Z,6.30
2019-01-04T10:54:38.781Z,6.30
2019-01-04T10:56:42.765Z,6.20
2019-01-04T10:58:46.519Z,6.10
2019-01-04T11:00:50.330Z,6.10
2019-01-04T11:02:54.077Z,6.00
2019-01-04T11:04:57.827Z,6.10
2019-01-04T11:07:01.577Z,6.10
2019-01-04T11:09:09.167Z,6.10
2019-01-04T11:11:12.930Z,6.10
2019-01-04T11:13:16.673Z,6.10
2019-01-04T11:15:20.686Z,5.90
2019-01-04T11:17:24.429Z,5.80
2019-01-04T11:19:28.206Z,5.80
2019-01-04T11:21:31.959Z,5.70
2019-01-04T11:24:05.947Z,5.70
2019-01-04T11:26:37.374Z,5.70
2019-01-04T11:29:09.886Z,5.60
2019-01-04T11:31:36.899Z,5.60
2019-01-04T11:34:31.011Z,5.60
2019-01-04T11:37:15.530Z,5.60
2019-01-04T11:39:40.030Z,5.50
2019-01-04T11:42:15.270Z,5.50
2019-01-04T11:44:31.559Z,5.50
2019-01-04T11:47:07.658Z,5.60
2019-01-04T11:49:53.225Z,5.60
2019-01-04T11:52:31.430Z,5.50
2019-01-04T11:54:35.212Z,5.50
2019-01-04T11:56:38.967Z,5.40
2019-01-04T11:58:42.698Z,5.40
2019-01-04T12:00:46.442Z,5.50
2019-01-04T12:02:50.190Z,5.50
2019-01-04T12:04:53.950Z,5.50
2019-01-04T12:06:57.702Z,5.50
2019-01-04T12:09:01.686Z,5.60
2019-01-04T12:11:05.513Z,5.50
2019-01-04T12:13:09.264Z,5.50
2019-01-04T12:15:13.328Z,5.50
2019-01-04T12:17:17.306Z,5.60
2019-01-04T12:19:21.058Z,5.60
2019-01-04T12:21:24.895Z,5.60
2019-01-04T12:23:29.177Z,5.60
2019-01-04T12:25:33.173Z,5.60
2019-01-04T12:27:37.163Z,5.70
2019-01-04T12:29:40.911Z,5.70
2019-01-04T12:31:44.672Z,5.70
2019-01-04T12:33:48.431Z,5.80
2019-01-04T12:35:52.167Z,5.80
2019-01-04T12:37:55.922Z,5.80
2019-01-04T12:39:59.656Z,5.80
2019-01-04T12:42:03.795Z,5.80
2019-01-04T12:44:07.570Z,5.80
2019-01-04T12:46:11.573Z,5.80
2019-01-04T12:48:15.570Z,5.80
2019-01-04T12:50:19.312Z,5.80
2019-01-04T12:52:23.070Z,5.90
2019-01-04T12:54:26.815Z,5.90
2019-01-04T12:56:30.556Z,6.00
2019-01-04T12:58:34.382Z,6.00
2019-01-04T13:00:38.219Z,5.90
2019-01-04T13:02:42.221Z,5.90
2019-01-04T13:04:45.964Z,5.80
2019-01-04T13:06:49.945Z,5.80
2019-01-04T13:08:54.218Z,5.80
2019-01-04T13:10:58.211Z,5.70
2019-01-04T13:13:02.221Z,5.70
2019-01-04T13:15:06.611Z,5.70
2019-01-04T13:17:10.501Z,5.70
2019-01-04T13:19:14.314Z,5.60
2019-01-04T13:21:18.074Z,5.60
2019-01-04T13:23:22.067Z,5.60
2019-01-04T13:25:25.830Z,5.60
2019-01-04T13:27:29.649Z,5.60
2019-01-04T13:29:33.470Z,5.60
2019-01-04T13:31:37.247Z,5.60
2019-01-04T13:33:40.995Z,5.60
2019-01-04T13:35:44.738Z,5.60
2019-01-04T13:37:48.719Z,5.60
2019-01-04T13:39:52.534Z,5.70
2019-01-04T13:41:56.275Z,5.60
2019-01-04T13:44:00.033Z,5.70
2019-01-04T13:46:03.911Z,5.60
2019-01-04T13:48:07.649Z,5.50
2019-01-04T13:50:11.715Z,5.50
2019-01-04T13:52:15.472Z,5.50
2019-01-04T13:54:19.471Z,5.60
2019-01-04T13:56:23.223Z,5.60
2019-01-04T13:58:27.043Z,5.60
2019-01-04T14:00:30.818Z,5.60
2019-01-04T14:02:34.566Z,5.60
2019-01-04T14:04:38.330Z,5.50
2019-01-04T14:06:42.078Z,5.50
2019-01-04T14:08:45.850Z,5.50
2019-01-04T14:10:49.946Z,5.40
2019-01-04T14:12:54.022Z,5.50
2019-01-04T14:14:57.778Z,5.50
2019-01-04T14:17:01.541Z,5.40
2019-01-04T14:19:05.278Z,5.40
2019-01-04T14:21:09.031Z,5.40
2019-01-04T14:23:12.771Z,5.50
2019-01-04T14:25:16.526Z,5.40
2019-01-04T14:27:20.591Z,5.50
2019-01-04T14:29:24.406Z,5.50
2019-01-04T14:31:28.176Z,5.40
2019-01-04T14:33:31.927Z,5.40
2019-01-04T14:35:35.698Z,5.40
2019-01-04T14:37:39.433Z,5.50
2019-01-04T14:39:43.705Z,5.40
2019-01-04T14:41:47.462Z,5.40
2019-01-04T14:43:51.194Z,5.50
2019-01-04T14:45:54.938Z,5.50
2019-01-04T14:47:58.691Z,5.40
2019-01-04T14:50:02.514Z,5.40
2019-01-04T14:52:06.566Z,5.40
2019-01-04T14:54:10.630Z,5.40
2019-01-04T14:56:14.378Z,5.40
2019-01-04T14:58:18.382Z,5.40
2019-01-04T15:00:22.638Z,5.40
2019-01-04T15:02:26.634Z,5.40
2019-01-04T15:04:30.423Z,5.40
2019-01-04T15:06:34.249Z,5.30
2019-01-04T15:08:37.995Z,5.30
2019-01-04T15:10:41.759Z,5.30
2019-01-04T15:12:45.574Z,5.30
2019-01-04T15:14:49.314Z,5.30
2019-01-04T15:16:53.146Z,5.30
2019-01-04T15:18:56.894Z,5.30
2019-01-04T15:21:00.639Z,5.30
2019-01-04T15:23:04.398Z,5.30
2019-01-04T15:25:08.290Z,5.30
2019-01-04T15:27:12.058Z,5.30
2019-01-04T15:29:16.138Z,5.30
2019-01-04T15:31:20.138Z,5.20
2019-01-04T15:33:23.886Z,5.20
2019-01-04T15:35:27.850Z,5.20
2019-01-04T15:37:31.862Z,5.30
2019-01-04T15:39:35.606Z,5.10
2019-01-04T15:41:39.351Z,5.20
2019-01-04T15:43:43.099Z,5.20
2019-01-04T15:45:46.855Z,5.30
2019-01-04T15:47:50.664Z,5.30
2019-01-04T15:49:54.419Z,5.30
2019-01-04T15:51:58.259Z,5.30
2019-01-04T15:54:02.032Z,5.30
2019-01-04T15:56:05.873Z,5.30
2019-01-04T15:58:09.623Z,5.30
2019-01-04T16:00:13.798Z,5.30
2019-01-04T16:02:17.580Z,5.30
2019-01-04T16:04:21.826Z,5.30
2019-01-04T16:06:26.113Z,5.30
2019-01-04T16:08:29.924Z,5.30
2019-01-04T16:10:33.674Z,5.40
2019-01-04T16:12:37.518Z,5.30
2019-01-04T16:14:41.268Z,5.30
2019-01-04T16:16:45.318Z,5.30
2019-01-04T16:18:49.071Z,5.30
2019-01-04T16:20:53.150Z,5.40
2019-01-04T16:22:57.161Z,5.30
2019-01-04T16:25:00.893Z,5.30
2019-01-04T16:27:04.966Z,5.40
2019-01-04T16:29:08.726Z,5.40
2019-01-04T16:31:12.522Z,5.40
2019-01-04T16:33:16.290Z,5.30
2019-01-04T16:35:20.405Z,5.40
2019-01-04T16:37:24.420Z,5.40
2019-01-04T16:39:28.433Z,5.40
2019-01-04T16:41:32.498Z,5.40
2019-01-04T16:43:36.490Z,5.40
2019-01-04T16:45:41.170Z,5.40
2019-01-04T16:47:44.989Z,5.40
2019-01-04T16:49:48.854Z,5.40
2019-01-04T16:51:52.605Z,5.50
2019-01-04T16:53:56.359Z,5.50
2019-01-04T16:56:00.384Z,5.50
2019-01-04T16:58:04.698Z,5.30
2019-01-04T17:02:14.369Z,5.30
2019-01-04T17:04:18.123Z,5.50
2019-01-04T17:06:21.891Z,5.60
2019-01-04T17:08:25.719Z,5.50
2019-01-04T17:10:29.499Z,5.60
2019-01-04T17:14:37.041Z,6.00
2019-01-04T17:16:40.779Z,5.60
2019-01-04T17:18:44.521Z,5.50
2019-01-04T17:20:48.279Z,5.60
2019-01-04T17:22:52.266Z,5.60
2019-01-04T17:24:56.027Z,5.60
2019-01-04T17:26:59.779Z,5.60
2019-01-04T17:29:03.611Z,5.60
2019-01-04T17:31:07.370Z,5.60
2019-01-04T17:35:14.811Z,5.60
2019-01-04T17:37:18.642Z,5.60
2019-01-04T17:39:22.622Z,5.60
2019-01-04T17:41:26.616Z,5.70
2019-01-04T17:43:31.788Z,5.60
2019-01-04T17:45:35.550Z,5.60
2019-01-04T17:47:39.723Z,5.50
2019-01-04T17:49:43.826Z,5.50
2019-01-04T17:51:47.582Z,5.60
2019-01-04T17:53:51.331Z,5.50
2019-01-04T17:55:55.105Z,5.70
2019-01-04T17:57:58.839Z,5.70
2019-01-04T18:00:02.665Z,5.70
2019-01-04T18:02:06.562Z,5.70
2019-01-04T18:04:10.307Z,5.70
2019-01-04T18:06:14.062Z,5.70
2019-01-04T18:08:18.063Z,5.60
2019-01-04T18:10:22.066Z,5.70
2019-01-04T18:12:26.150Z,5.70
2019-01-04T18:14:29.897Z,5.80
2019-01-04T18:16:33.734Z,5.70
2019-01-04T18:18:37.482Z,5.80
2019-01-04T18:20:41.263Z,5.70
2019-01-04T18:22:45.194Z,5.80
2019-01-04T18:24:48.974Z,5.90
2019-01-04T18:26:53.052Z,5.80
2019-01-04T18:28:59.210Z,6.10
2019-01-04T18:31:03.224Z,5.80
2019-01-04T18:35:12.606Z,6.10
2019-01-04T18:37:16.387Z,5.90
2019-01-04T18:39:20.242Z,5.90
2019-01-04T18:45:34.589Z,5.80
2019-01-04T18:47:39.489Z,5.80
2019-01-04T18:49:43.393Z,5.80
2019-01-04T18:51:47.490Z,5.70
2019-01-04T18:53:53.538Z,5.80
2019-01-04T18:55:57.603Z,5.90
2019-01-04T18:58:01.381Z,5.90
2019-01-04T19:00:06.114Z,5.80
2019-01-04T19:02:09.863Z,5.80
2019-01-04T19:04:13.849Z,5.80
2019-01-04T19:06:17.630Z,5.80
2019-01-04T19:08:21.463Z,5.80
2019-01-04T19:10:25.332Z,5.80
2019-01-04T19:12:29.074Z,5.80
2019-01-04T19:14:34.112Z,5.90
2019-01-04T19:16:37.850Z,5.90
2019-01-04T19:18:41.617Z,5.90
2019-01-04T19:20:45.361Z,5.90
2019-01-04T19:22:49.118Z,5.90
2019-01-04T19:24:52.960Z,5.90
2019-01-04T19:26:56.779Z,5.90
2019-01-04T19:29:00.526Z,5.90
2019-01-04T19:31:04.346Z,5.90
2019-01-04T19:33:08.334Z,6.00
2019-01-04T19:35:12.342Z,6.10
2019-01-04T19:37:16.094Z,6.10
2019-01-04T19:39:19.858Z,6.10
2019-01-04T19:41:23.863Z,6.10
2019-01-04T19:43:27.627Z,6.10
2019-01-04T19:45:31.654Z,6.10
2019-01-04T19:47:35.675Z,6.20
2019-01-04T19:49:39.671Z,6.10
2019-01-04T19:51:43.713Z,6.10
2019-01-04T19:53:47.471Z,6.10
2019-01-04T19:55:51.241Z,6.10
2019-01-04T19:57:55.103Z,6.10
2019-01-04T19:59:59.106Z,6.10
2019-01-04T20:02:02.870Z,6.10
2019-01-04T20:04:06.955Z,6.10
2019-01-04T20:07:04.966Z,6.10
2019-01-04T20:10:15.216Z,6.10
2019-01-04T20:13:25.083Z,6.10
2019-01-04T20:16:14.522Z,6.10
2019-01-04T20:18:46.362Z,6.10
2019-01-04T20:21:21.539Z,6.10
2019-01-04T20:23:42.828Z,6.10
2019-01-04T20:26:04.454Z,6.10
2019-01-04T20:28:27.418Z,6.10
2019-01-04T20:30:50.018Z,6.10
2019-01-04T20:33:10.106Z,6.20
2019-01-04T20:35:33.284Z,6.20
2019-01-04T20:37:54.768Z,6.20
2019-01-04T20:40:16.328Z,6.20
2019-01-04T20:42:45.251Z,6.20
2019-01-04T20:45:23.394Z,6.20
2019-01-04T20:47:44.922Z,6.20
2019-01-04T20:50:04.275Z,6.20
2019-01-04T20:52:20.188Z,6.20
2019-01-04T20:54:43.124Z,6.30
2019-01-04T20:56:59.558Z,6.30
2019-01-04T20:59:19.307Z,6.30
2019-01-04T21:01:45.038Z,6.40
2019-01-04T21:06:28.823Z,6.40
2019-01-04T21:08:52.551Z,6.30
2019-01-04T21:11:15.412Z,6.30
2019-01-04T21:13:38.277Z,6.30
2019-01-04T21:15:56.316Z,6.40
2019-01-04T21:18:25.291Z,6.40
2019-01-04T21:20:48.465Z,6.40
2019-01-04T21:23:23.768Z,6.50
2019-01-04T21:25:45.313Z,6.50
2019-01-04T21:28:08.771Z,6.40
2019-01-04T21:30:50.188Z,6.50
2019-01-04T21:33:18.280Z,6.40
2019-01-04T21:35:39.718Z,6.50
2019-01-04T21:37:54.674Z,6.50
2019-01-04T21:40:19.287Z,6.50
2019-01-04T21:42:51.482Z,6.50
2019-01-04T21:45:20.633Z,6.50
2019-01-04T21:47:46.516Z,6.60
2019-01-04T21:50:21.478Z,6.60
2019-01-04T21:52:44.798Z,6.60
2019-01-04T21:55:01.601Z,6.60
2019-01-04T21:57:42.462Z,6.60
2019-01-04T22:00:03.791Z,6.60
2019-01-04T22:02:19.309Z,6.60
2019-01-04T22:04:46.282Z,6.60
2019-01-04T22:07:18.117Z,6.60
2019-01-04T22:09:39.399Z,6.70
2019-01-04T22:12:00.886Z,6.70
2019-01-04T22:14:22.601Z,6.70
2019-01-04T22:16:44.203Z,6.70
2019-01-04T22:19:18.446Z,6.70
2019-01-04T22:21:42.635Z,6.70
2019-01-04T22:24:20.738Z,6.80
2019-01-04T22:26:56.726Z,6.80
2019-01-04T22:29:17.290Z,6.80
2019-01-04T22:31:40.103Z,6.70
2019-01-04T22:34:13.335Z,6.80
2019-01-04T22:37:02.524Z,6.70
2019-01-04T22:39:32.006Z,6.70
2019-01-04T22:42:10.999Z,6.70
2019-01-04T22:44:41.825Z,6.70
2019-01-04T22:46:55.551Z,6.60
2019-01-04T22:49:27.624Z,6.60
2019-01-04T22:51:49.242Z,6.50
2019-01-04T22:54:10.936Z,6.50
2019-01-04T22:56:32.490Z,6.50
2019-01-04T22:58:46.332Z,6.50
2019-01-04T23:01:16.364Z,6.50
2019-01-04T23:03:48.590Z,6.60
2019-01-04T23:06:09.913Z,6.50
2019-01-04T23:08:31.603Z,6.60
2019-01-04T23:10:54.225Z,6.50
2019-01-04T23:13:15.767Z,6.60
2019-01-04T23:15:37.446Z,6.50
2019-01-04T23:17:52.402Z,6.60
2019-01-04T23:20:13.898Z,6.70
2019-01-04T23:22:48.838Z,6.60
2019-01-04T23:25:07.879Z,6.70
2019-01-04T23:27:31.230Z,6.70
2019-01-04T23:29:55.647Z,6.70
2019-01-04T23:32:18.491Z,6.70
2019-01-04T23:34:40.038Z,6.70
2019-01-04T23:37:01.829Z,6.60
2019-01-04T23:39:34.483Z,6.60
2019-01-04T23:42:12.644Z,6.60
2019-01-04T23:44:34.109Z,6.60
2019-01-04T23:46:51.986Z,6.60
2019-01-04T23:49:16.695Z,6.60
2019-01-04T23:51:38.097Z,6.60
2019-01-04T23:53:59.763Z,6.60
2019-01-04T23:56:32.758Z,6.60
2019-01-04T23:58:49.166Z,6.60
